Time;durP1;ratioP1;P1;durP2;ratioP2;P2;SDS_P1;SDS_P2;PMS_P1;PMS_P2;Temp;Humidity;BMP_temperature;BMP_pressure;BME280_temperature;BME280_humidity;BME280_pressure;Samples;Min_cycle;Max_cycle;Signal;HPM_P1;HPM_P2
2021/12/24 00:01:50;;;;;;;112.38;32.30;;;5.80;99.90;;;;;;5115555;27;20047;-80
2021/12/24 00:04:16;;;;;;;104.47;32.42;;;5.80;99.90;;;;;;5133553;27;20126;-83
2021/12/24 00:06:42;;;;;;;164.43;43.13;;;5.90;99.90;;;;;;5131018;27;20047;-80
2021/12/24 00:09:07;;;;;;;115.45;36.63;;;6.00;99.90;;;;;;5115768;27;20035;-81
2021/12/24 00:11:35;;;;;;;135.50;34.75;;;5.90;99.90;;;;;;5115908;27;20057;-80
2021/12/24 00:14:03;;;;;;;109.20;32.95;;;5.90;99.90;;;;;;5112365;27;20039;-80
2021/12/24 00:16:52;;;;;;;100.45;29.42;;;5.90;99.90;;;;;;5115048;27;20043;-82
2021/12/24 00:19:35;;;;;;;114.57;31.65;;;6.00;99.90;;;;;;5130519;27;20157;-81
2021/12/24 00:22:44;;;;;;;120.78;31.08;;;6.00;99.90;;;;;;5082530;28;20047;-81
2021/12/24 00:35:59;;;;;;;122.80;30.17;;;6.20;99.90;;;;;;5132528;27;20065;-81
2021/12/24 00:38:25;;;;;;;78.78;25.13;;;6.20;99.90;;;;;;5115506;27;20031;-80
2021/12/24 00:40:50;;;;;;;85.43;28.02;;;6.30;99.90;;;;;;5119519;27;20393;-80
2021/12/24 00:43:17;;;;;;;95.18;28.75;;;6.30;99.90;;;;;;5102823;27;20130;-80
2021/12/24 00:45:45;;;;;;;77.22;26.90;;;6.30;99.90;;;;;;5119316;27;20042;-85
2021/12/24 00:48:13;;;;;;;96.53;29.23;;;6.40;99.90;;;;;;5116722;27;20484;-80
2021/12/24 00:50:54;;;;;;;146.32;33.58;;;6.40;99.90;;;;;;5119261;27;20445;-80
2021/12/24 00:56:20;;;;;;;100.70;26.10;;;6.40;99.90;;;;;;5102285;27;20396;-81
2021/12/24 00:58:47;;;;;;;74.35;24.13;;;6.50;99.90;;;;;;5086582;27;20102;-84
2021/12/24 01:01:14;;;;;;;89.82;24.55;;;6.40;99.90;;;;;;5119017;27;20050;-80
2021/12/24 01:03:41;;;;;;;79.50;23.70;;;6.50;99.90;;;;;;5118607;27;20392;-81
2021/12/24 01:06:06;;;;;;;87.65;23.55;;;6.50;99.90;;;;;;5135731;27;20043;-80
2021/12/24 01:08:33;;;;;;;102.55;24.80;;;6.50;99.90;;;;;;5135471;27;20111;-81
2021/12/24 01:11:03;;;;;;;82.25;23.25;;;6.50;99.90;;;;;;5117645;27;20047;-80
2021/12/24 01:13:29;;;;;;;114.28;25.80;;;6.50;99.90;;;;;;5118145;27;20046;-81
2021/12/24 01:16:05;;;;;;;105.68;24.60;;;6.50;99.90;;;;;;5117121;27;20050;-81
2021/12/24 01:21:18;;;;;;;67.03;20.98;;;6.50;99.90;;;;;;5130583;27;20053;-83
2021/12/24 01:23:57;;;;;;;66.90;19.80;;;6.60;99.90;;;;;;5130529;27;20095;-80
2021/12/24 01:26:38;;;;;;;58.28;18.65;;;6.60;99.90;;;;;;5113212;27;20046;-79
2021/12/24 01:29:36;;;;;;;63.38;19.27;;;6.60;99.90;;;;;;5133578;27;20030;-79
2021/12/24 01:42:50;;;;;;;44.72;15.20;;;6.60;99.90;;;;;;5152534;27;20495;-79
2021/12/24 01:45:31;;;;;;;43.78;15.02;;;6.70;99.90;;;;;;5134760;27;20074;-78
2021/12/24 01:48:08;;;;;;;32.75;12.80;;;6.70;99.90;;;;;;5114602;27;20492;-79
2021/12/24 01:50:35;;;;;;;34.85;13.60;;;6.70;99.90;;;;;;5127911;27;20035;-79
2021/12/24 01:53:03;;;;;;;34.65;13.80;;;6.80;99.90;;;;;;5124810;27;20774;-79
2021/12/24 01:55:29;;;;;;;40.42;14.18;;;6.80;99.90;;;;;;5117442;27;20349;-78
2021/12/24 01:57:56;;;;;;;47.08;14.88;;;6.80;99.90;;;;;;5116447;27;20050;-79
2021/12/24 02:00:36;;;;;;;31.48;12.43;;;6.80;99.90;;;;;;5134389;27;20424;-79
2021/12/24 02:03:03;;;;;;;41.53;13.32;;;6.80;99.90;;;;;;5128690;27;20046;-79
2021/12/24 02:05:31;;;;;;;30.27;13.15;;;6.80;99.90;;;;;;5134303;27;20070;-79
2021/12/24 02:08:01;;;;;;;32.65;12.52;;;6.80;99.90;;;;;;5133966;27;20117;-80
2021/12/24 02:10:28;;;;;;;37.65;14.23;;;6.90;99.90;;;;;;5133030;27;20638;-79
2021/12/24 02:12:54;;;;;;;40.85;13.65;;;6.90;99.90;;;;;;5114961;27;20051;-85
2021/12/24 02:18:44;;;;;;;31.13;12.93;;;6.90;99.90;;;;;;5134001;27;20038;-80
2021/12/24 02:28:57;;;;;;;25.70;11.25;;;7.00;99.90;;;;;;5133840;27;20106;-84
2021/12/24 02:31:26;;;;;;;38.38;11.70;;;7.00;99.90;;;;;;5134211;27;20128;-80
2021/12/24 02:33:52;;;;;;;37.42;12.57;;;7.10;99.90;;;;;;5132154;27;20394;-80
2021/12/24 02:36:21;;;;;;;24.65;10.55;;;7.10;99.90;;;;;;5110187;27;20046;-79
2021/12/24 02:38:48;;;;;;;22.95;10.60;;;7.10;99.90;;;;;;5116704;27;20035;-82
2021/12/24 02:41:14;;;;;;;19.67;9.25;;;7.10;99.90;;;;;;5134084;27;20552;-82
2021/12/24 02:43:41;;;;;;;19.95;9.82;;;7.20;99.90;;;;;;5151190;27;20098;-78
2021/12/24 02:46:11;;;;;;;29.05;10.57;;;7.20;99.90;;;;;;5125944;27;20042;-79
2021/12/24 02:53:58;;;;;;;23.33;9.32;;;7.30;99.90;;;;;;5133460;27;20106;-81
2021/12/24 02:56:33;;;;;;;21.15;9.43;;;7.20;99.90;;;;;;5133208;27;20101;-79
2021/12/24 02:59:10;;;;;;;17.02;8.52;;;7.30;99.90;;;;;;5130953;27;20043;-80
2021/12/24 03:01:38;;;;;;;25.63;9.88;;;7.30;99.90;;;;;;5116358;27;20042;-79
2021/12/24 03:04:05;;;;;;;18.13;8.70;;;7.40;99.90;;;;;;5133263;27;20047;-79
2021/12/24 03:06:35;;;;;;;18.75;9.15;;;7.40;99.90;;;;;;5110758;27;20042;-79
2021/12/24 03:09:05;;;;;;;18.73;8.98;;;7.40;99.90;;;;;;5116835;27;20039;-84
2021/12/24 03:11:31;;;;;;;21.17;9.30;;;7.50;99.90;;;;;;5133871;27;20069;-79
2021/12/24 03:13:57;;;;;;;15.13;7.22;;;7.50;99.90;;;;;;5132940;27;20038;-80
2021/12/24 03:16:22;;;;;;;24.92;9.38;;;7.50;99.90;;;;;;5092934;27;20050;-82
2021/12/24 03:18:49;;;;;;;17.00;8.18;;;7.50;99.90;;;;;;5100178;27;20421;-80
2021/12/24 03:21:23;;;;;;;15.38;7.95;;;7.50;99.90;;;;;;5114983;27;20054;-79
2021/12/24 03:26:32;;;;;;;16.55;6.85;;;7.60;99.90;;;;;;5118077;27;20142;-81
2021/12/24 03:28:58;;;;;;;20.70;8.43;;;7.70;99.90;;;;;;5115235;27;20078;-82
2021/12/24 03:31:24;;;;;;;27.02;9.02;;;7.80;99.90;;;;;;5132504;27;20092;-79
2021/12/24 03:33:53;;;;;;;29.63;9.57;;;7.80;99.90;;;;;;5117010;27;20506;-79
2021/12/24 03:36:21;;;;;;;20.35;7.13;;;7.90;99.90;;;;;;5130271;27;20046;-80
2021/12/24 03:38:47;;;;;;;35.47;10.27;;;7.90;99.90;;;;;;5119276;27;20368;-78
2021/12/24 03:41:12;;;;;;;22.30;8.95;;;7.90;99.90;;;;;;5109272;27;20067;-79
2021/12/24 03:43:38;;;;;;;25.88;9.80;;;8.00;99.90;;;;;;5095147;28;20118;-78
2021/12/24 03:46:08;;;;;;;37.60;10.65;;;8.00;99.90;;;;;;5112329;27;20054;-79
2021/12/24 03:56:38;;;;;;;55.17;14.80;;;8.10;99.90;;;;;;5122772;27;20054;-79
2021/12/24 03:59:05;;;;;;;67.38;16.15;;;8.10;99.90;;;;;;5133770;27;20046;-79
2021/12/24 04:01:31;;;;;;;59.70;15.65;;;8.10;99.90;;;;;;5130078;27;20943;-78
2021/12/24 04:03:57;;;;;;;63.88;17.15;;;8.20;99.90;;;;;;5133161;27;20480;-79
2021/12/24 04:06:23;;;;;;;83.90;19.75;;;8.20;99.90;;;;;;5133868;27;20059;-80
2021/12/24 04:08:49;;;;;;;68.85;18.67;;;8.30;99.90;;;;;;5116702;27;20042;-82
2021/12/24 04:11:15;;;;;;;61.92;17.98;;;8.30;99.90;;;;;;5087839;28;20067;-80
2021/12/24 04:13:41;;;;;;;65.35;18.80;;;8.40;99.90;;;;;;5115398;27;20441;-80
2021/12/24 04:16:07;;;;;;;53.67;15.38;;;8.40;99.90;;;;;;5120699;27;20078;-80
2021/12/24 04:26:30;;;;;;;36.33;13.13;;;8.40;99.90;;;;;;5136131;27;19919;-79
2021/12/24 04:28:56;;;;;;;52.40;17.65;;;8.50;99.90;;;;;;5119765;27;20049;-80
2021/12/24 04:31:28;;;;;;;65.80;19.48;;;8.50;99.90;;;;;;5136197;27;20042;-80
2021/12/24 04:33:59;;;;;;;66.35;20.40;;;8.50;99.90;;;;;;5131387;27;20086;-80
2021/12/24 05:03:39;;;;;;;65.15;19.75;;;8.50;99.90;;;;;;5135414;27;20066;-80
2021/12/24 05:06:28;;;;;;;50.58;18.80;;;8.50;99.90;;;;;;5136320;27;20073;-79
2021/12/24 05:08:56;;;;;;;35.90;15.10;;;8.50;99.90;;;;;;5115300;27;20051;-80
2021/12/24 05:11:23;;;;;;;53.45;19.30;;;8.50;99.90;;;;;;5119185;27;20491;-80
2021/12/24 05:13:51;;;;;;;40.03;16.92;;;8.50;99.90;;;;;;5136026;27;20047;-80
2021/12/24 05:16:23;;;;;;;50.10;20.50;;;8.50;99.90;;;;;;5135779;27;20043;-82
2021/12/24 05:21:35;;;;;;;43.03;19.02;;;8.60;99.90;;;;;;5134846;27;20047;-81
2021/12/24 05:24:04;;;;;;;42.08;16.33;;;8.60;99.90;;;;;;5118305;27;20074;-81
2021/12/24 05:26:31;;;;;;;51.90;21.45;;;8.60;99.90;;;;;;5133907;27;20046;-80
2021/12/24 05:28:58;;;;;;;54.63;20.60;;;8.60;99.90;;;;;;5080122;27;20061;-80
2021/12/24 05:31:24;;;;;;;54.83;21.50;;;8.60;99.90;;;;;;5134886;27;20043;-84
2021/12/24 05:33:50;;;;;;;54.70;22.05;;;8.50;99.90;;;;;;5134130;27;20070;-80
2021/12/24 05:36:16;;;;;;;48.95;18.00;;;8.60;99.90;;;;;;5085356;27;20534;-82
2021/12/24 05:38:43;;;;;;;55.60;21.70;;;8.60;99.90;;;;;;5079692;27;20046;-80
2021/12/24 05:41:09;;;;;;;58.47;22.00;;;8.60;99.90;;;;;;5118215;27;20066;-80
2021/12/24 05:43:35;;;;;;;55.63;21.92;;;8.60;99.90;;;;;;5089374;27;20091;-80
2021/12/24 05:46:01;;;;;;;50.75;21.48;;;8.50;99.90;;;;;;5100714;27;20051;-81
2021/12/24 05:48:27;;;;;;;63.05;20.13;;;8.50;99.90;;;;;;5117352;27;20082;-83
2021/12/24 05:50:52;;;;;;;45.20;19.58;;;8.50;99.90;;;;;;5101776;27;20073;-79
2021/12/24 05:53:18;;;;;;;50.40;18.45;;;8.50;99.90;;;;;;5094784;27;20035;-81
2021/12/24 05:55:44;;;;;;;50.20;19.45;;;8.50;99.90;;;;;;5074521;27;20042;-80
2021/12/24 05:58:09;;;;;;;43.55;18.58;;;8.50;99.90;;;;;;5135238;27;20095;-81
2021/12/24 06:00:38;;;;;;;55.70;19.42;;;8.60;99.90;;;;;;5117992;27;20090;-79
2021/12/24 06:03:07;;;;;;;48.95;19.58;;;8.50;99.90;;;;;;5153328;27;20046;-79
2021/12/24 06:05:34;;;;;;;55.45;21.45;;;8.50;99.90;;;;;;5116000;27;20045;-80
2021/12/24 06:08:00;;;;;;;59.20;21.15;;;8.50;99.90;;;;;;5135259;27;20421;-80
2021/12/24 06:10:26;;;;;;;59.95;21.13;;;8.50;99.90;;;;;;5117677;27;20102;-80
2021/12/24 06:12:52;;;;;;;46.97;16.88;;;8.50;99.90;;;;;;5118030;27;20071;-81
2021/12/24 06:15:23;;;;;;;58.45;18.42;;;8.50;99.90;;;;;;5114114;27;20106;-80
2021/12/24 06:17:51;;;;;;;43.83;16.90;;;8.50;99.90;;;;;;5098097;27;20673;-80
2021/12/24 06:20:17;;;;;;;52.80;18.17;;;8.40;99.90;;;;;;5109688;27;20368;-82
2021/12/24 06:22:42;;;;;;;54.60;17.20;;;8.40;99.90;;;;;;5121969;27;20070;-80
2021/12/24 06:25:08;;;;;;;59.30;20.23;;;8.40;99.90;;;;;;5118369;27;20491;-80
2021/12/24 06:27:34;;;;;;;50.80;17.45;;;8.40;99.90;;;;;;5094916;27;20472;-79
2021/12/24 06:30:00;;;;;;;46.83;17.20;;;8.40;99.90;;;;;;5133217;27;20511;-83
2021/12/24 06:32:26;;;;;;;43.25;17.42;;;8.40;99.90;;;;;;5113771;27;20196;-79
2021/12/24 06:34:52;;;;;;;39.65;13.15;;;8.40;99.90;;;;;;5127340;27;20039;-79
2021/12/24 06:37:18;;;;;;;44.53;15.57;;;8.40;99.90;;;;;;5134499;27;20053;-80
2021/12/24 06:39:43;;;;;;;44.65;16.45;;;8.30;99.90;;;;;;5112057;27;20384;-79
2021/12/24 06:42:09;;;;;;;42.30;14.35;;;8.40;99.90;;;;;;5108652;27;20050;-81
2021/12/24 06:44:35;;;;;;;35.85;13.75;;;8.40;99.90;;;;;;5115407;27;20137;-79
2021/12/24 06:47:01;;;;;;;40.47;14.02;;;8.40;99.90;;;;;;5117501;27;20129;-79
2021/12/24 06:49:27;;;;;;;43.42;13.13;;;8.40;99.90;;;;;;5117395;27;20038;-79
2021/12/24 06:51:52;;;;;;;34.42;13.82;;;8.30;99.90;;;;;;5125535;27;20612;-80
2021/12/24 06:54:18;;;;;;;39.80;15.60;;;8.30;99.90;;;;;;5114192;27;20464;-81
2021/12/24 06:56:47;;;;;;;42.70;13.85;;;8.30;99.90;;;;;;5107622;27;20054;-80
2021/12/24 06:59:14;;;;;;;42.15;13.05;;;8.30;99.90;;;;;;5133684;27;20051;-79
2021/12/24 07:01:40;;;;;;;42.63;13.90;;;8.40;99.90;;;;;;5133934;27;20030;-79
2021/12/24 07:04:07;;;;;;;33.15;12.93;;;8.30;99.90;;;;;;5132808;27;20050;-80
2021/12/24 07:06:32;;;;;;;41.50;12.52;;;8.30;99.90;;;;;;5110263;27;20049;-79
2021/12/24 07:08:58;;;;;;;36.35;13.27;;;8.30;99.90;;;;;;5115234;27;20046;-80
2021/12/24 07:11:25;;;;;;;39.83;12.70;;;8.30;99.90;;;;;;5116681;27;20062;-79
2021/12/24 07:13:52;;;;;;;46.20;14.98;;;8.30;99.90;;;;;;5095960;27;20479;-80
2021/12/24 07:16:17;;;;;;;35.65;12.30;;;8.30;99.90;;;;;;5133238;27;20149;-80
2021/12/24 07:18:43;;;;;;;47.47;15.75;;;8.30;99.90;;;;;;5099485;27;20146;-79
2021/12/24 07:21:09;;;;;;;32.40;12.82;;;8.20;99.90;;;;;;5133716;27;20056;-80
2021/12/24 07:23:35;;;;;;;24.02;9.07;;;8.20;99.90;;;;;;5115056;27;20042;-79
2021/12/24 07:26:01;;;;;;;34.90;10.45;;;8.20;99.90;;;;;;5132878;27;20559;-79
2021/12/24 07:28:27;;;;;;;38.65;10.80;;;8.20;99.90;;;;;;5115440;27;20137;-80
2021/12/24 07:30:53;;;;;;;27.98;10.48;;;8.20;99.90;;;;;;5133350;27;20111;-79
2021/12/24 07:33:19;;;;;;;34.95;10.75;;;8.20;99.90;;;;;;5116721;27;20377;-79
2021/12/24 07:35:46;;;;;;;34.75;10.82;;;8.20;99.90;;;;;;5111384;27;20046;-79
2021/12/24 07:38:15;;;;;;;28.90;9.98;;;8.20;99.90;;;;;;5085368;27;20585;-79
2021/12/24 07:40:45;;;;;;;42.95;11.10;;;8.20;99.90;;;;;;5133533;27;20064;-84
2021/12/24 07:43:11;;;;;;;37.20;12.32;;;8.20;99.90;;;;;;5096771;27;20166;-81
2021/12/24 07:45:39;;;;;;;32.33;9.73;;;8.20;99.90;;;;;;5115755;27;20042;-81
2021/12/24 07:48:13;;;;;;;27.10;9.82;;;8.20;99.90;;;;;;5114584;27;20487;-80
2021/12/24 07:53:08;;;;;;;29.00;9.80;;;8.20;99.90;;;;;;5116693;27;20047;-80
2021/12/24 07:55:35;;;;;;;30.55;10.35;;;8.20;99.90;;;;;;5139052;27;20039;-80
2021/12/24 07:58:01;;;;;;;26.50;8.85;;;8.10;99.90;;;;;;5108953;27;20050;-80
2021/12/24 08:00:29;;;;;;;33.63;10.45;;;8.20;99.90;;;;;;5137995;27;20098;-81
2021/12/24 08:02:56;;;;;;;32.90;10.23;;;8.10;99.90;;;;;;5138554;27;20048;-79
2021/12/24 08:05:24;;;;;;;37.00;9.90;;;8.10;99.90;;;;;;5104629;27;20126;-79
2021/12/24 08:07:52;;;;;;;44.50;11.88;;;8.10;99.90;;;;;;5121603;27;20080;-78
2021/12/24 08:10:18;;;;;;;35.90;9.30;;;8.10;99.90;;;;;;5138348;27;20812;-78
2021/12/24 08:12:44;;;;;;;31.63;8.30;;;8.10;99.90;;;;;;5121624;27;20049;-80
2021/12/24 08:15:10;;;;;;;29.75;8.85;;;8.10;99.90;;;;;;5138776;27;20130;-79
2021/12/24 08:17:36;;;;;;;31.90;8.95;;;8.10;99.90;;;;;;5121537;27;20049;-80
2021/12/24 08:20:06;;;;;;;31.48;9.88;;;8.10;99.90;;;;;;5083687;27;20743;-80
2021/12/24 08:22:34;;;;;;;26.15;8.20;;;8.10;99.90;;;;;;5104455;27;20051;-83
2021/12/24 08:25:00;;;;;;;32.75;8.25;;;8.10;99.90;;;;;;5134782;27;20061;-81
2021/12/24 08:27:26;;;;;;;25.83;6.93;;;8.10;99.90;;;;;;5129198;27;20196;-81
2021/12/24 08:29:52;;;;;;;37.13;8.25;;;8.00;99.90;;;;;;5117563;27;20473;-82
2021/12/24 08:32:18;;;;;;;24.42;7.35;;;8.00;99.90;;;;;;5138466;27;20046;-80
2021/12/24 08:34:44;;;;;;;33.15;9.90;;;8.10;99.90;;;;;;5121140;27;20399;-80
2021/12/24 08:37:10;;;;;;;34.70;9.13;;;8.10;99.90;;;;;;5137932;27;20438;-81
2021/12/24 08:39:36;;;;;;;28.17;8.10;;;8.00;99.90;;;;;;5124759;27;20549;-79
2021/12/24 08:42:02;;;;;;;37.05;8.27;;;8.00;99.90;;;;;;5086408;27;20043;-79
2021/12/24 08:44:31;;;;;;;31.65;8.30;;;8.10;99.90;;;;;;5113606;27;20057;-79
2021/12/24 08:47:00;;;;;;;28.75;8.15;;;8.10;99.90;;;;;;5117669;27;20058;-78
2021/12/24 08:49:26;;;;;;;36.20;9.60;;;8.10;99.90;;;;;;5133925;27;20074;-78
2021/12/24 08:51:53;;;;;;;32.03;7.65;;;8.00;99.90;;;;;;5120684;27;20097;-83
2021/12/24 08:54:21;;;;;;;24.90;7.90;;;8.10;99.90;;;;;;5117723;27;20047;-78
2021/12/24 08:56:47;;;;;;;22.42;8.05;;;8.00;99.90;;;;;;5132554;27;20121;-78
2021/12/24 08:59:13;;;;;;;22.77;7.95;;;8.10;99.90;;;;;;5135136;27;20043;-79
2021/12/24 09:01:42;;;;;;;20.30;7.97;;;8.10;99.90;;;;;;5136770;27;20050;-78
2021/12/24 09:04:09;;;;;;;25.38;7.38;;;8.20;99.90;;;;;;5153717;27;20046;-81
2021/12/24 09:06:34;;;;;;;30.33;8.10;;;8.10;99.90;;;;;;5120525;27;20137;-79
2021/12/24 09:09:00;;;;;;;22.45;5.90;;;8.10;99.90;;;;;;5135565;27;20117;-79
2021/12/24 09:11:26;;;;;;;30.40;7.95;;;8.00;99.90;;;;;;5103479;27;20058;-81
2021/12/24 09:13:52;;;;;;;21.48;7.05;;;8.10;99.90;;;;;;5120343;27;20046;-78
2021/12/24 09:16:18;;;;;;;29.05;7.88;;;8.10;99.90;;;;;;5136882;27;20047;-80
2021/12/24 09:18:44;;;;;;;21.85;7.13;;;8.10;99.90;;;;;;5136745;27;20118;-79
2021/12/24 09:21:15;;;;;;;24.85;7.22;;;8.10;99.90;;;;;;5131246;27;20050;-79
2021/12/24 09:23:46;;;;;;;24.27;7.72;;;8.10;99.90;;;;;;5097897;27;20081;-79
2021/12/24 09:26:12;;;;;;;27.65;10.25;;;8.10;99.90;;;;;;5114140;27;20054;-76
2021/12/24 09:28:38;;;;;;;30.33;9.02;;;8.10;99.90;;;;;;5151939;27;20046;-81
2021/12/24 09:31:03;;;;;;;33.30;10.13;;;8.20;99.90;;;;;;5097347;27;20396;-78
2021/12/24 09:33:29;;;;;;;30.17;8.23;;;8.20;99.90;;;;;;5109418;27;20511;-76
2021/12/24 09:35:55;;;;;;;26.17;8.75;;;8.20;99.90;;;;;;5140358;27;20039;-77
2021/12/24 09:38:20;;;;;;;31.58;9.32;;;8.10;99.90;;;;;;5112388;27;20050;-78
2021/12/24 09:40:46;;;;;;;32.78;9.23;;;8.20;99.90;;;;;;5104794;27;20097;-79
2021/12/24 09:43:12;;;;;;;36.63;9.70;;;8.20;99.90;;;;;;5110400;27;20130;-77
2021/12/24 09:45:38;;;;;;;37.65;9.63;;;8.10;99.90;;;;;;5133493;27;21139;-78
2021/12/24 09:48:04;;;;;;;42.20;10.07;;;8.20;99.90;;;;;;5112029;27;20458;-78
2021/12/24 09:50:30;;;;;;;35.58;10.23;;;8.20;99.90;;;;;;5089259;27;20047;-79
2021/12/24 09:52:56;;;;;;;34.40;9.00;;;8.20;99.90;;;;;;5129889;27;20042;-80
2021/12/24 09:55:25;;;;;;;39.53;10.60;;;8.20;99.90;;;;;;5139988;27;20097;-81
2021/12/24 09:57:51;;;;;;;37.22;9.35;;;8.20;99.90;;;;;;5135331;27;20538;-79
2021/12/24 10:00:21;;;;;;;38.80;10.95;;;8.20;99.90;;;;;;5131109;27;20050;-78
2021/12/24 10:02:51;;;;;;;26.02;8.65;;;8.20;99.90;;;;;;5135999;27;20049;-80
2021/12/24 10:05:36;;;;;;;54.75;10.40;;;8.30;99.90;;;;;;5129044;27;20138;-77
2021/12/24 10:08:03;;;;;;;44.47;10.85;;;8.30;99.90;;;;;;5134845;27;20039;-81
2021/12/24 10:10:31;;;;;;;45.00;9.57;;;8.30;99.90;;;;;;5132798;27;20035;-77
2021/12/24 10:13:43;;;;;;;31.30;8.27;;;8.20;99.90;;;;;;5135187;27;20058;-80
2021/12/24 10:16:12;;;;;;;31.30;8.48;;;8.30;99.90;;;;;;5114616;27;20095;-79
2021/12/24 10:18:44;;;;;;;35.92;12.55;;;8.20;99.90;;;;;;5121504;27;20046;-81
2021/12/24 10:21:17;;;;;;;35.63;11.15;;;8.20;99.90;;;;;;5113442;27;20050;-82
2021/12/24 10:23:43;;;;;;;27.05;6.95;;;8.20;99.90;;;;;;5113125;27;20081;-81
2021/12/24 10:26:27;;;;;;;22.98;6.72;;;8.20;99.90;;;;;;5131050;27;20085;-80
2021/12/24 10:28:55;;;;;;;18.35;7.15;;;8.20;99.90;;;;;;5098933;27;20076;-80
2021/12/24 10:31:30;;;;;;;22.17;6.47;;;8.20;99.90;;;;;;5129085;27;20422;-82
2021/12/24 10:34:26;;;;;;;16.65;5.68;;;8.20;99.90;;;;;;5116537;27;20583;-82
2021/12/24 10:37:02;;;;;;;22.17;7.38;;;8.20;99.90;;;;;;5129599;27;20050;-80
2021/12/24 10:39:56;;;;;;;19.88;7.13;;;8.20;99.90;;;;;;5149369;27;20047;-80
2021/12/24 10:42:25;;;;;;;7.97;3.92;;;8.20;99.90;;;;;;5114993;27;20042;-79
2021/12/24 10:44:52;;;;;;;15.82;5.50;;;8.10;99.90;;;;;;5108694;27;20059;-81
2021/12/24 10:47:24;;;;;;;11.25;4.18;;;8.20;99.90;;;;;;5108804;27;20047;-80
2021/12/24 10:50:28;;;;;;;13.38;7.38;;;8.20;99.90;;;;;;5110382;27;20043;-83
2021/12/24 10:53:14;;;;;;;11.13;6.40;;;7.90;99.90;;;;;;5108967;27;20403;-80
2021/12/24 10:55:51;;;;;;;3.85;3.22;;;7.50;99.90;;;;;;5111460;27;20098;-79
2021/12/24 10:58:19;;;;;;;5.00;2.80;;;7.20;99.90;;;;;;5126844;27;20062;-79
2021/12/24 11:00:55;;;;;;;5.93;4.25;;;7.00;99.90;;;;;;5108916;27;20106;-80
2021/12/24 11:03:23;;;;;;;10.98;6.70;;;6.90;99.90;;;;;;5111879;27;20051;-81
2021/12/24 11:06:04;;;;;;;6.28;3.67;;;6.80;99.90;;;;;;5123629;27;20047;-80
2021/12/24 11:08:30;;;;;;;10.10;5.75;;;6.80;99.90;;;;;;5126791;27;20444;-79
2021/12/24 11:10:58;;;;;;;6.70;4.13;;;6.70;99.90;;;;;;5105201;27;20057;-76
2021/12/24 11:13:31;;;;;;;6.97;3.85;;;6.70;99.90;;;;;;5117474;27;20523;-78
2021/12/24 11:15:59;;;;;;;6.32;3.53;;;6.60;99.90;;;;;;5122736;27;20039;-82
2021/12/24 11:18:27;;;;;;;6.00;3.42;;;6.60;99.90;;;;;;5089162;27;20100;-79
2021/12/24 11:21:03;;;;;;;6.07;4.10;;;6.50;99.90;;;;;;5131486;27;20046;-79
2021/12/24 11:23:33;;;;;;;6.85;4.00;;;6.50;99.90;;;;;;5128425;27;20098;-81
2021/12/24 11:26:17;;;;;;;8.57;3.95;;;6.50;99.90;;;;;;5094716;27;20039;-78
2021/12/24 11:28:44;;;;;;;6.13;3.80;;;6.50;99.90;;;;;;5121930;27;20492;-80
2021/12/24 11:31:16;;;;;;;19.35;5.30;;;6.50;99.90;;;;;;5112088;27;20364;-83
2021/12/24 11:33:44;;;;;;;7.30;4.05;;;6.50;99.90;;;;;;5125218;27;20436;-78
2021/12/24 11:36:13;;;;;;;10.07;4.75;;;6.60;99.90;;;;;;5130800;27;20046;-79
2021/12/24 11:38:42;;;;;;;5.78;3.53;;;6.60;99.90;;;;;;5129942;27;20061;-77
2021/12/24 11:41:14;;;;;;;5.53;2.72;;;6.50;99.90;;;;;;5123141;27;20497;-78
2021/12/24 11:43:42;;;;;;;5.50;2.53;;;6.50;99.90;;;;;;5132635;27;20064;-81
2021/12/24 11:46:10;;;;;;;5.82;2.67;;;6.50;99.90;;;;;;5151018;27;20089;-78
2021/12/24 11:48:37;;;;;;;4.20;2.40;;;6.60;99.90;;;;;;5114797;27;20070;-78
2021/12/24 11:51:07;;;;;;;3.70;2.53;;;6.60;99.90;;;;;;5118368;27;20399;-77
2021/12/24 11:53:33;;;;;;;5.40;2.58;;;6.60;99.90;;;;;;5113425;27;20507;-77
2021/12/24 11:56:07;;;;;;;4.28;2.40;;;6.50;99.90;;;;;;5117149;27;20051;-78
2021/12/24 11:58:40;;;;;;;3.13;2.35;;;6.60;99.90;;;;;;5121768;27;20065;-78
2021/12/24 12:01:06;;;;;;;5.30;3.00;;;6.60;99.90;;;;;;5147145;27;20368;-77
2021/12/24 12:03:41;;;;;;;5.60;3.92;;;6.60;99.90;;;;;;5148259;27;20047;-77
2021/12/24 12:06:11;;;;;;;7.75;3.92;;;6.60;99.90;;;;;;5116662;27;20506;-77
2021/12/24 12:08:41;;;;;;;6.13;4.35;;;6.60;99.90;;;;;;5128691;27;20045;-80
2021/12/24 12:11:24;;;;;;;5.45;3.85;;;6.70;99.90;;;;;;5146290;27;20061;-76
2021/12/24 12:13:59;;;;;;;6.70;3.88;;;6.70;99.90;;;;;;5130386;27;20043;-77
2021/12/24 12:16:48;;;;;;;3.90;2.63;;;6.70;99.90;;;;;;5108418;27;20065;-75
2021/12/24 12:19:25;;;;;;;3.80;2.50;;;6.60;99.90;;;;;;5141413;27;20043;-76
2021/12/24 12:24:57;;;;;;;3.42;2.58;;;6.50;99.90;;;;;;5118473;28;20082;-77
2021/12/24 12:27:39;;;;;;;3.33;2.50;;;6.40;99.90;;;;;;5128324;27;20038;-76
2021/12/24 12:30:31;;;;;;;5.22;3.03;;;6.40;99.90;;;;;;5129241;27;20527;-75
2021/12/24 12:33:09;;;;;;;5.22;2.88;;;6.30;99.90;;;;;;5120037;27;20109;-75
2021/12/24 12:35:42;;;;;;;4.10;2.95;;;6.30;99.90;;;;;;5147755;27;20091;-79
2021/12/24 12:38:40;;;;;;;3.88;2.60;;;6.20;99.90;;;;;;5131416;27;20046;-78
2021/12/24 12:41:33;;;;;;;7.75;4.35;;;6.20;99.90;;;;;;5128458;27;20777;-77
2021/12/24 12:44:03;;;;;;;6.82;5.45;;;6.20;99.90;;;;;;5137891;27;20095;-78
2021/12/24 12:46:33;;;;;;;12.05;7.22;;;6.30;99.90;;;;;;5119390;27;20088;-80
2021/12/24 12:49:04;;;;;;;6.47;3.90;;;6.10;99.90;;;;;;5136792;27;20137;-77
2021/12/24 12:51:51;;;;;;;6.72;4.63;;;6.20;99.90;;;;;;5142395;27;20121;-78
2021/12/24 12:54:35;;;;;;;;;;;6.20;99.90;;;;;;5120584;27;20078;-78
2021/12/24 12:57:21;;;;;;;7.03;5.18;;;6.20;99.90;;;;;;5135054;27;19984;-77
2021/12/24 13:00:12;;;;;;;7.95;5.75;;;6.20;99.90;;;;;;5130945;27;20042;-78
2021/12/24 13:02:56;;;;;;;20.13;9.95;;;6.30;99.90;;;;;;5119464;27;20046;-81
2021/12/24 13:05:23;;;;;;;16.55;11.05;;;6.30;99.90;;;;;;5111726;27;20058;-84
2021/12/24 13:07:49;;;;;;;19.35;14.68;;;6.30;99.90;;;;;;5097993;27;20053;-80
2021/12/24 13:10:19;;;;;;;6.32;4.85;;;6.40;99.90;;;;;;5079061;27;20068;-80
2021/12/24 13:12:45;;;;;;;12.15;7.28;;;6.40;99.90;;;;;;5131417;27;20042;-79
2021/12/24 13:15:16;;;;;;;6.93;5.40;;;6.50;99.90;;;;;;5112199;27;20095;-78
2021/12/24 13:17:48;;;;;;;7.05;5.18;;;6.70;99.90;;;;;;5114425;27;20038;-80
2021/12/24 13:22:39;;;;;;;8.60;5.18;;;6.80;99.90;;;;;;5135933;27;20085;-79
2021/12/24 13:25:15;;;;;;;9.85;7.03;;;6.80;99.90;;;;;;5110891;27;20050;-77
2021/12/24 13:27:50;;;;;;;8.77;6.53;;;6.80;99.90;;;;;;5106442;27;20046;-77
2021/12/24 13:30:25;;;;;;;7.45;5.88;;;6.80;99.90;;;;;;5112474;27;20111;-79
2021/12/24 13:32:53;;;;;;;8.35;5.80;;;6.70;99.90;;;;;;5132532;27;20081;-83
2021/12/24 13:35:31;;;;;;;8.10;5.57;;;6.60;99.90;;;;;;5106856;27;20553;-76
2021/12/24 13:37:57;;;;;;;7.43;5.43;;;6.60;99.90;;;;;;5148455;27;20053;-80
2021/12/24 13:40:27;;;;;;;7.18;5.07;;;6.60;99.90;;;;;;5123409;27;20050;-79
2021/12/24 13:42:55;;;;;;;7.20;5.78;;;6.60;99.90;;;;;;5130293;27;20043;-78
2021/12/24 13:45:23;;;;;;;12.23;6.85;;;6.70;99.90;;;;;;5134462;27;20085;-79
2021/12/24 13:48:01;;;;;;;6.32;4.30;;;6.60;99.90;;;;;;5134662;27;20422;-78
2021/12/24 13:56:01;;;;;;;8.02;5.35;;;6.30;99.90;;;;;;5121586;27;20047;-79
2021/12/24 13:58:27;;;;;;;8.43;5.30;;;6.30;99.90;;;;;;5113823;27;20050;-78
2021/12/24 14:00:56;;;;;;;7.22;4.50;;;6.30;99.90;;;;;;5101359;27;20051;-79
2021/12/24 14:03:25;;;;;;;8.30;5.00;;;6.30;99.90;;;;;;5130747;27;20077;-78
2021/12/24 14:05:53;;;;;;;7.10;4.78;;;6.30;99.90;;;;;;5135727;27;20047;-78
2021/12/24 14:08:23;;;;;;;8.70;6.38;;;6.30;99.90;;;;;;5111654;27;20053;-79
2021/12/24 14:10:59;;;;;;;8.40;6.10;;;6.20;99.90;;;;;;5115043;27;20422;-81
2021/12/24 14:13:29;;;;;;;8.18;5.90;;;6.20;99.90;;;;;;5117092;27;20046;-78
2021/12/24 14:18:53;;;;;;;9.50;4.85;;;6.20;99.90;;;;;;5132521;27;20427;-78
2021/12/24 14:21:47;;;;;;;7.40;5.03;;;6.20;99.90;;;;;;5118618;27;20133;-79
2021/12/24 14:24:26;;;;;;;8.85;4.43;;;6.20;99.90;;;;;;5117640;27;20038;-78
2021/12/24 14:26:55;;;;;;;7.78;4.22;;;6.20;99.90;;;;;;5125007;27;20167;-78
2021/12/24 14:29:39;;;;;;;5.88;4.03;;;6.20;99.90;;;;;;5110937;27;20116;-78
2021/12/24 14:32:09;;;;;;;8.18;4.35;;;6.10;99.90;;;;;;5134776;27;20085;-77
2021/12/24 14:34:50;;;;;;;6.95;4.45;;;6.10;99.90;;;;;;5117668;27;20096;-84
2021/12/24 14:37:33;;;;;;;6.45;4.57;;;6.10;99.90;;;;;;5120218;27;20099;-78
2021/12/24 14:40:07;;;;;;;10.85;6.32;;;6.10;99.90;;;;;;5127253;27;20130;-77
2021/12/24 14:42:35;;;;;;;13.20;8.18;;;6.10;99.90;;;;;;5110578;27;20043;-77
2021/12/24 14:45:21;;;;;;;19.20;11.73;;;6.10;99.90;;;;;;5116358;27;20039;-78
2021/12/24 14:48:02;;;;;;;42.63;21.60;;;6.10;99.90;;;;;;5122875;27;20047;-79